createdAt,value
2023-04-04T00:00:40.009Z,5.43
2023-04-04T00:03:07.159Z,6.50
2023-04-04T00:05:35.805Z,6.53
2023-04-04T00:08:03.849Z,6.05
2023-04-04T00:10:30.598Z,6.60
2023-04-04T00:12:57.319Z,4.57
2023-04-04T00:15:23.996Z,4.38
2023-04-04T00:17:50.799Z,3.35
2023-04-04T00:20:17.676Z,2.92
2023-04-04T00:22:45.028Z,2.97
2023-04-04T00:25:12.310Z,2.35
2023-04-04T00:27:39.026Z,3.10
2023-04-04T00:30:06.798Z,2.38
2023-04-04T00:32:33.589Z,2.50
2023-04-04T00:35:00.558Z,2.15
2023-04-04T00:37:28.045Z,1.42
2023-04-04T00:39:54.778Z,1.95
2023-04-04T00:42:21.452Z,2.10
2023-04-04T00:44:48.626Z,1.67
2023-04-04T00:47:15.563Z,2.72
2023-04-04T00:49:42.238Z,2.35
2023-04-04T00:52:09.034Z,1.90
2023-04-04T00:54:36.009Z,2.42
2023-04-04T00:57:04.442Z,2.28
2023-04-04T00:59:32.333Z,2.25
2023-04-04T01:02:00.759Z,2.38
2023-04-04T01:04:29.456Z,2.30
2023-04-04T01:06:56.925Z,2.83
2023-04-04T01:09:23.753Z,2.05
2023-04-04T01:11:50.863Z,2.67
2023-04-04T01:14:17.527Z,3.53
2023-04-04T01:16:45.571Z,2.10
2023-04-04T01:19:22.375Z,2.63
2023-04-04T01:21:49.571Z,2.47
2023-04-04T01:24:17.642Z,2.08
2023-04-04T01:26:44.608Z,2.88
2023-04-04T01:29:11.483Z,2.72
2023-04-04T01:31:41.896Z,2.20
2023-04-04T01:34:08.629Z,3.00
2023-04-04T01:36:53.659Z,2.17
2023-04-04T01:39:28.326Z,2.67
2023-04-04T01:41:58.444Z,2.38
2023-04-04T01:44:26.522Z,2.60
2023-04-04T01:46:56.355Z,4.40
2023-04-04T01:49:23.559Z,2.13
2023-04-04T01:51:52.725Z,2.45
2023-04-04T01:54:19.364Z,3.10
2023-04-04T01:56:46.549Z,3.40
2023-04-04T01:59:13.488Z,2.30
2023-04-04T02:01:40.196Z,2.58
2023-04-04T02:04:07.483Z,2.25
2023-04-04T02:06:34.144Z,3.67
2023-04-04T02:09:01.106Z,2.22
2023-04-04T02:11:27.819Z,2.33
2023-04-04T02:13:54.439Z,2.20
2023-04-04T02:16:21.517Z,2.20
2023-04-04T02:18:48.295Z,3.80
2023-04-04T02:21:15.005Z,2.17
2023-04-04T02:23:41.695Z,2.20
2023-04-04T02:26:08.313Z,2.45
2023-04-04T02:28:35.102Z,2.88
2023-04-04T02:31:02.997Z,2.60
2023-04-04T02:33:30.098Z,2.05
2023-04-04T02:35:58.874Z,2.30
2023-04-04T02:38:26.310Z,2.78
2023-04-04T02:40:53.363Z,3.20
2023-04-04T02:43:20.083Z,2.65
2023-04-04T02:45:49.534Z,2.80
2023-04-04T02:48:16.450Z,2.70
2023-04-04T02:50:43.763Z,2.75
2023-04-04T02:53:10.560Z,4.40
2023-04-04T02:55:37.187Z,4.47
2023-04-04T02:58:03.952Z,3.92
2023-04-04T03:00:37.446Z,2.65
2023-04-04T03:03:05.533Z,2.38
2023-04-04T03:05:32.732Z,2.40
2023-04-04T03:07:59.908Z,2.75
2023-04-04T03:10:30.011Z,2.55
2023-04-04T03:12:57.503Z,2.28
2023-04-04T03:15:24.310Z,2.55
2023-04-04T03:20:18.919Z,3.28
2023-04-04T03:22:45.612Z,2.70
2023-04-04T03:25:12.416Z,2.67
2023-04-04T03:27:39.936Z,4.97
2023-04-04T03:30:08.445Z,4.00
2023-04-04T03:32:36.499Z,2.90
2023-04-04T03:35:03.574Z,4.32
2023-04-04T03:37:30.590Z,3.47
2023-04-04T03:39:58.302Z,4.28
2023-04-04T03:42:26.108Z,4.90
2023-04-04T03:44:56.364Z,3.60
2023-04-04T03:47:23.048Z,4.28
2023-04-04T03:49:51.598Z,5.45
2023-04-04T03:52:18.815Z,3.75
2023-04-04T03:54:46.177Z,4.45
2023-04-04T03:57:12.878Z,3.40
2023-04-04T03:59:39.760Z,4.32
2023-04-04T04:02:06.926Z,4.00
2023-04-04T04:04:33.714Z,3.75
2023-04-04T04:07:00.958Z,3.22
2023-04-04T04:09:27.615Z,4.40
2023-04-04T04:11:54.329Z,4.25
2023-04-04T04:14:21.003Z,4.13
2023-04-04T04:16:47.874Z,4.57
2023-04-04T04:19:14.527Z,3.67
2023-04-04T04:21:42.703Z,3.40
2023-04-04T04:24:09.694Z,5.18
2023-04-04T04:26:36.462Z,3.58
2023-04-04T04:29:03.341Z,4.07
2023-04-04T04:31:30.118Z,3.88
2023-04-04T04:33:57.013Z,4.82
2023-04-04T04:36:23.866Z,4.25
2023-04-04T04:38:50.755Z,4.53
2023-04-04T04:41:17.430Z,4.38
2023-04-04T04:43:44.065Z,4.82
2023-04-04T04:46:10.830Z,4.45
2023-04-04T04:48:37.582Z,4.38
2023-04-04T04:51:04.399Z,4.40
2023-04-04T04:53:31.476Z,4.30
2023-04-04T04:55:58.168Z,4.45
2023-04-04T04:58:26.916Z,4.07
2023-04-04T05:00:57.908Z,4.10
2023-04-04T05:03:25.118Z,4.82
2023-04-04T05:05:52.132Z,3.60
2023-04-04T05:08:19.052Z,4.18
2023-04-04T05:10:45.776Z,3.67
2023-04-04T05:13:12.612Z,4.15
2023-04-04T05:15:39.301Z,4.03
2023-04-04T05:18:06.054Z,3.42
2023-04-04T05:20:33.508Z,3.55
2023-04-04T05:23:00.163Z,3.88
2023-04-04T05:25:27.738Z,3.90
2023-04-04T05:30:25.892Z,3.70
2023-04-04T05:32:52.755Z,4.35
2023-04-04T05:35:19.586Z,5.60
2023-04-04T05:37:46.554Z,6.72
2023-04-04T05:40:13.354Z,5.05
2023-04-04T05:42:40.064Z,5.32
2023-04-04T05:45:07.380Z,4.55
2023-04-04T05:47:34.070Z,4.97
2023-04-04T05:50:01.161Z,5.00
2023-04-04T05:52:28.050Z,5.55
2023-04-04T05:54:54.903Z,5.72
2023-04-04T05:57:22.955Z,4.97
2023-04-04T05:59:50.174Z,5.05
2023-04-04T06:02:17.535Z,4.50
2023-04-04T06:04:45.655Z,4.47
2023-04-04T06:07:12.278Z,4.43
2023-04-04T06:09:38.902Z,4.65
2023-04-04T06:12:05.675Z,4.43
2023-04-04T06:14:32.498Z,3.50
2023-04-04T06:16:59.340Z,3.40
2023-04-04T06:19:26.940Z,3.92
2023-04-04T06:21:53.600Z,3.78
2023-04-04T06:24:20.440Z,3.40
2023-04-04T06:26:51.420Z,3.33
2023-04-04T06:29:18.591Z,3.70
2023-04-04T06:31:45.487Z,3.35
2023-04-04T06:34:12.292Z,3.55
2023-04-04T06:36:38.954Z,4.97
2023-04-04T06:39:05.723Z,3.92
2023-04-04T06:41:32.457Z,6.20
2023-04-04T06:43:59.169Z,4.28
2023-04-04T06:46:27.153Z,4.55
2023-04-04T06:48:54.933Z,4.70
2023-04-04T06:51:23.309Z,8.57
2023-04-04T06:53:50.222Z,5.70
2023-04-04T06:56:16.976Z,4.63
2023-04-04T06:58:43.735Z,4.35
2023-04-04T07:01:10.443Z,4.00
2023-04-04T07:03:37.522Z,7.95
2023-04-04T07:06:06.642Z,10.50
2023-04-04T07:08:35.955Z,10.65
2023-04-04T07:11:03.306Z,9.35
2023-04-04T07:13:29.975Z,8.50
2023-04-04T07:15:57.177Z,5.65
2023-04-04T07:18:23.913Z,6.35
2023-04-04T07:20:50.526Z,8.63
2023-04-04T07:23:17.222Z,8.55
2023-04-04T07:25:45.046Z,9.60
2023-04-04T07:28:13.529Z,11.23
2023-04-04T07:30:40.798Z,9.20
2023-04-04T07:33:08.111Z,7.60
2023-04-04T07:35:35.503Z,6.03
2023-04-04T07:38:03.098Z,5.90
2023-04-04T07:40:30.189Z,5.28
2023-04-04T07:42:57.558Z,5.32
2023-04-04T07:45:24.280Z,4.00
2023-04-04T07:47:51.152Z,4.28
2023-04-04T07:50:18.115Z,4.28
2023-04-04T07:52:51.388Z,3.50
2023-04-04T07:55:19.597Z,4.28
2023-04-04T07:57:47.323Z,3.53
2023-04-04T08:00:14.721Z,4.50
2023-04-04T08:02:44.554Z,4.10
2023-04-04T08:05:11.278Z,4.50
2023-04-04T08:07:38.102Z,3.75
2023-04-04T08:10:06.243Z,4.07
2023-04-04T08:12:33.257Z,4.10
2023-04-04T08:14:59.891Z,3.95
2023-04-04T08:17:26.647Z,4.57
2023-04-04T08:19:53.317Z,4.30
2023-04-04T08:22:20.172Z,4.78
2023-04-04T08:24:46.819Z,4.70
2023-04-04T08:27:15.063Z,7.05
2023-04-04T08:29:42.013Z,6.93
2023-04-04T08:32:09.576Z,5.63
2023-04-04T08:34:36.487Z,4.68
2023-04-04T08:37:03.195Z,7.32
2023-04-04T08:39:29.955Z,10.43
2023-04-04T08:42:07.747Z,11.25
2023-04-04T08:44:35.656Z,7.28
2023-04-04T08:47:08.487Z,5.35
2023-04-04T08:49:38.547Z,3.90
2023-04-04T08:52:07.579Z,4.53
2023-04-04T08:54:35.726Z,4.22
2023-04-04T08:57:02.577Z,4.20
2023-04-04T08:59:29.473Z,3.70
2023-04-04T09:02:14.555Z,4.53
2023-04-04T09:04:48.707Z,3.97
2023-04-04T09:07:22.888Z,3.35
2023-04-04T09:09:51.030Z,3.05
2023-04-04T09:12:18.977Z,3.38
2023-04-04T09:14:47.716Z,3.20
2023-04-04T09:17:14.393Z,3.50
2023-04-04T09:19:41.045Z,3.22
2023-04-04T09:22:09.306Z,3.92
2023-04-04T09:24:40.771Z,3.20
2023-04-04T09:27:12.158Z,4.22
2023-04-04T09:29:39.753Z,2.90
2023-04-04T09:32:10.702Z,3.03
2023-04-04T09:34:37.950Z,3.08
2023-04-04T09:37:07.050Z,2.78
2023-04-04T09:39:34.832Z,2.25
2023-04-04T09:42:02.160Z,2.78
2023-04-04T09:44:33.341Z,2.60
2023-04-04T09:50:02.174Z,2.25
2023-04-04T09:52:33.286Z,2.55
2023-04-04T09:55:02.213Z,2.63
2023-04-04T09:57:34.861Z,4.43
2023-04-04T10:00:09.549Z,3.10
2023-04-04T10:02:47.026Z,3.38
2023-04-04T10:05:14.643Z,3.08
2023-04-04T10:07:43.693Z,2.85
2023-04-04T10:10:11.142Z,2.30
2023-04-04T10:12:38.929Z,2.72
2023-04-04T10:15:06.185Z,3.70
2023-04-04T10:17:41.054Z,3.83
2023-04-04T10:20:09.387Z,3.70
2023-04-04T10:22:37.907Z,3.25
2023-04-04T10:25:05.977Z,4.30
2023-04-04T10:27:34.360Z,3.30
2023-04-04T10:30:01.558Z,3.15
2023-04-04T10:32:35.882Z,3.83
2023-04-04T10:35:10.928Z,2.95
2023-04-04T10:37:51.568Z,2.67
2023-04-04T10:40:21.411Z,3.88
2023-04-04T10:42:50.900Z,3.38
2023-04-04T10:45:21.713Z,3.08
2023-04-04T10:47:49.397Z,3.10
2023-04-04T10:50:16.380Z,3.78
2023-04-04T10:52:44.610Z,3.20
2023-04-04T10:55:15.917Z,4.28
2023-04-04T10:57:55.201Z,3.53
2023-04-04T11:00:26.303Z,3.42
2023-04-04T11:02:53.156Z,2.90
2023-04-04T11:05:32.945Z,2.70
2023-04-04T11:08:08.333Z,2.65
2023-04-04T11:10:38.018Z,2.50
2023-04-04T11:13:16.339Z,3.22
2023-04-04T11:15:56.900Z,2.72
2023-04-04T11:18:34.321Z,3.03
2023-04-04T11:21:08.132Z,2.75
2023-04-04T11:24:13.363Z,2.80
2023-04-04T11:26:42.827Z,3.88
2023-04-04T11:29:14.374Z,3.05
2023-04-04T11:31:45.563Z,2.78
2023-04-04T11:34:13.825Z,2.45
2023-04-04T11:36:41.701Z,2.08
2023-04-04T11:39:31.326Z,2.67
2023-04-04T11:42:11.454Z,2.30
2023-04-04T11:45:00.034Z,2.40
2023-04-04T11:47:26.787Z,4.40
2023-04-04T11:49:54.151Z,2.88
2023-04-04T11:52:21.321Z,2.38
2023-04-04T11:54:49.126Z,3.00
2023-04-04T11:57:18.910Z,2.10
2023-04-04T11:59:48.809Z,3.63
2023-04-04T12:02:27.486Z,2.50
2023-04-04T12:04:55.524Z,3.10
2023-04-04T12:07:24.845Z,2.92
2023-04-04T12:09:52.246Z,2.30
2023-04-04T12:12:20.536Z,2.00
2023-04-04T12:14:47.776Z,2.53
2023-04-04T12:17:15.999Z,2.47
2023-04-04T12:19:43.663Z,2.70
2023-04-04T12:22:10.866Z,2.28
2023-04-04T12:24:37.933Z,2.00
2023-04-04T12:27:05.455Z,2.47
2023-04-04T12:29:42.686Z,1.95
2023-04-04T12:32:10.805Z,2.35
2023-04-04T12:34:46.977Z,2.40
2023-04-04T12:37:19.175Z,2.75
2023-04-04T12:39:51.113Z,2.17
2023-04-04T12:44:52.196Z,2.53
2023-04-04T12:47:21.203Z,2.05
2023-04-04T12:49:48.841Z,2.92
2023-04-04T12:52:23.287Z,3.35
2023-04-04T12:57:27.631Z,2.10
2023-04-04T12:59:55.831Z,2.05
2023-04-04T13:02:23.733Z,3.00
2023-04-04T13:04:57.905Z,2.50
2023-04-04T13:07:25.909Z,2.53
2023-04-04T13:10:02.789Z,3.70
2023-04-04T13:12:59.645Z,2.00
2023-04-04T13:15:52.100Z,3.60
2023-04-04T13:18:24.652Z,3.00
2023-04-04T13:20:52.864Z,2.45
2023-04-04T13:23:20.423Z,2.50
2023-04-04T13:25:47.132Z,3.38
2023-04-04T13:28:14.394Z,2.10
2023-04-04T13:30:46.800Z,1.90
2023-04-04T13:33:13.829Z,2.17
2023-04-04T13:35:43.808Z,3.13
2023-04-04T13:38:11.771Z,2.22
2023-04-04T13:40:38.694Z,2.15
2023-04-04T13:43:05.495Z,1.58
2023-04-04T13:45:35.707Z,2.13
2023-04-04T13:48:02.965Z,1.55
2023-04-04T13:50:32.982Z,2.30
2023-04-04T13:52:59.736Z,1.65
2023-04-04T13:55:27.681Z,2.67
2023-04-04T13:57:54.562Z,1.98
2023-04-04T14:00:21.633Z,2.70
2023-04-04T14:02:53.480Z,3.00
2023-04-04T14:05:22.434Z,1.70
2023-04-04T14:07:50.788Z,2.17
2023-04-04T14:10:17.489Z,2.30
2023-04-04T14:12:44.601Z,2.63
2023-04-04T14:15:12.357Z,4.00
2023-04-04T14:17:39.039Z,1.83
2023-04-04T14:20:06.890Z,2.63
2023-04-04T14:22:34.148Z,3.70
2023-04-04T14:25:01.284Z,2.30
2023-04-04T14:27:28.022Z,2.10
2023-04-04T14:29:54.658Z,2.58
2023-04-04T14:32:21.496Z,3.03
2023-04-04T14:34:49.540Z,3.75
2023-04-04T14:37:17.696Z,3.50
2023-04-04T14:39:44.773Z,3.83
2023-04-04T14:42:12.556Z,2.72
2023-04-04T14:44:39.328Z,3.28
2023-04-04T14:47:06.018Z,2.95
2023-04-04T14:49:33.119Z,4.28
2023-04-04T14:51:59.810Z,3.45
2023-04-04T14:54:26.568Z,3.45
2023-04-04T14:56:53.220Z,3.97
2023-04-04T14:59:20.028Z,2.70
2023-04-04T15:01:47.025Z,2.22
2023-04-04T15:04:13.736Z,1.67
2023-04-04T15:06:40.506Z,2.75
2023-04-04T15:09:08.145Z,2.35
2023-04-04T15:11:35.985Z,2.30
2023-04-04T15:14:03.094Z,2.00
2023-04-04T15:16:33.154Z,2.85
2023-04-04T15:19:00.772Z,2.83
2023-04-04T15:21:28.621Z,3.85
2023-04-04T15:23:55.558Z,3.78
2023-04-04T15:26:22.946Z,4.00
2023-04-04T15:28:49.861Z,3.40
2023-04-04T15:31:17.069Z,4.32
2023-04-04T15:33:44.054Z,3.45
2023-04-04T15:36:11.145Z,2.95
2023-04-04T15:38:38.141Z,2.60
2023-04-04T15:41:08.150Z,2.97
2023-04-04T15:43:36.554Z,1.65
2023-04-04T15:46:03.297Z,2.33
2023-04-04T15:48:30.058Z,1.40
2023-04-04T15:51:02.388Z,1.70
2023-04-04T15:53:33.441Z,1.05
2023-04-04T15:56:02.048Z,1.42
2023-04-04T15:58:28.747Z,2.03
2023-04-04T16:00:56.121Z,1.98
2023-04-04T16:03:24.616Z,2.88
2023-04-04T16:05:51.311Z,1.38
2023-04-04T16:08:18.385Z,2.45
2023-04-04T16:10:45.088Z,1.50
2023-04-04T16:13:13.560Z,1.67
2023-04-04T16:15:40.434Z,1.80
2023-04-04T16:18:07.377Z,1.67
2023-04-04T16:20:34.264Z,1.77
2023-04-04T16:23:01.131Z,1.35
2023-04-04T16:25:27.928Z,2.28
2023-04-04T16:27:54.582Z,1.67
2023-04-04T16:30:21.345Z,1.70
2023-04-04T16:32:48.161Z,2.00
2023-04-04T16:35:15.635Z,1.83
2023-04-04T16:37:42.314Z,2.10
2023-04-04T16:40:09.524Z,1.60
2023-04-04T16:42:36.226Z,2.20
2023-04-04T16:45:02.976Z,2.47
2023-04-04T16:47:29.926Z,1.77
2023-04-04T16:49:57.702Z,2.90
2023-04-04T16:52:24.385Z,1.80
2023-04-04T16:54:51.105Z,1.95
2023-04-04T16:57:17.951Z,2.72
2023-04-04T16:59:45.700Z,2.13
2023-04-04T17:02:12.644Z,4.55
2023-04-04T17:04:41.726Z,2.03
2023-04-04T17:07:09.037Z,2.47
2023-04-04T17:09:35.955Z,2.38
2023-04-04T17:12:03.377Z,2.38
2023-04-04T17:14:30.448Z,1.83
2023-04-04T17:17:02.754Z,1.92
2023-04-04T17:19:31.695Z,2.60
2023-04-04T17:21:58.854Z,1.88
2023-04-04T17:24:27.458Z,2.58
2023-04-04T17:26:58.424Z,2.38
2023-04-04T17:29:27.062Z,2.75
2023-04-04T17:31:55.223Z,2.60
2023-04-04T17:34:22.554Z,2.58
2023-04-04T17:36:51.323Z,2.53
2023-04-04T17:39:17.998Z,2.05
2023-04-04T17:41:48.387Z,2.10
2023-04-04T17:44:16.049Z,2.10
2023-04-04T17:46:43.070Z,2.60
2023-04-04T17:49:09.888Z,2.30
2023-04-04T17:51:37.587Z,2.55
2023-04-04T17:54:05.189Z,2.88
2023-04-04T17:56:32.099Z,2.90
2023-04-04T17:58:58.998Z,3.00
2023-04-04T18:01:27.962Z,3.15
2023-04-04T18:03:55.070Z,2.97
2023-04-04T18:06:22.200Z,3.17
2023-04-04T18:08:48.863Z,2.22
2023-04-04T18:11:16.411Z,2.42
2023-04-04T18:13:44.169Z,2.88
2023-04-04T18:16:10.881Z,2.15
2023-04-04T18:18:39.285Z,2.45
2023-04-04T18:21:06.870Z,2.10
2023-04-04T18:23:33.587Z,1.77
2023-04-04T18:26:01.314Z,2.50
2023-04-04T18:28:27.948Z,2.70
2023-04-04T18:30:54.884Z,2.50
2023-04-04T18:33:22.223Z,3.65
2023-04-04T18:35:48.975Z,1.70
2023-04-04T18:38:15.636Z,2.28
2023-04-04T18:40:45.226Z,2.28
2023-04-04T18:43:12.248Z,2.50
2023-04-04T18:45:41.270Z,2.63
2023-04-04T18:48:08.843Z,2.90
2023-04-04T18:50:35.843Z,2.38
2023-04-04T18:53:02.562Z,2.45
2023-04-04T18:55:29.693Z,2.55
2023-04-04T18:57:57.574Z,3.83
2023-04-04T19:00:24.956Z,2.63
2023-04-04T19:02:51.791Z,2.85
2023-04-04T19:05:24.324Z,2.60
2023-04-04T19:07:54.585Z,2.63
2023-04-04T19:10:22.106Z,2.85
2023-04-04T19:12:49.268Z,2.50
2023-04-04T19:15:16.681Z,2.00
2023-04-04T19:17:43.382Z,2.42
2023-04-04T19:20:11.121Z,2.13
2023-04-04T19:22:37.734Z,2.28
2023-04-04T19:25:04.688Z,2.63
2023-04-04T19:27:31.368Z,3.55
2023-04-04T19:29:57.961Z,2.35
2023-04-04T19:32:27.585Z,3.28
2023-04-04T19:34:54.307Z,4.70
2023-04-04T19:37:21.009Z,4.35
2023-04-04T19:39:48.613Z,2.90
2023-04-04T19:42:15.414Z,4.38
2023-04-04T19:44:42.454Z,2.58
2023-04-04T19:47:18.151Z,4.43
2023-04-04T19:49:45.374Z,4.22
2023-04-04T19:52:14.213Z,3.22
2023-04-04T19:54:43.008Z,4.38
2023-04-04T19:57:20.064Z,2.60
2023-04-04T20:00:13.616Z,2.45
2023-04-04T20:02:52.689Z,5.22
2023-04-04T20:05:58.674Z,4.72
2023-04-04T20:08:35.751Z,5.13
2023-04-04T20:11:02.558Z,3.70
2023-04-04T20:13:30.137Z,3.50
2023-04-04T20:16:04.117Z,3.25
2023-04-04T20:18:33.122Z,3.63
2023-04-04T20:21:12.989Z,3.28
2023-04-04T20:23:57.885Z,3.35
2023-04-04T20:26:54.304Z,4.32
2023-04-04T20:29:25.175Z,4.38
2023-04-04T20:32:00.592Z,4.72
2023-04-04T20:34:42.805Z,5.32
2023-04-04T20:39:46.206Z,5.70
2023-04-04T20:42:27.833Z,5.40
2023-04-04T20:44:56.052Z,5.55
2023-04-04T20:47:42.373Z,5.22
2023-04-04T20:50:19.104Z,5.90
2023-04-04T20:52:47.475Z,5.28
2023-04-04T20:55:14.289Z,6.38
2023-04-04T20:57:41.340Z,6.10
2023-04-04T21:00:29.216Z,6.15
2023-04-04T21:02:58.325Z,5.78
2023-04-04T21:05:30.190Z,5.80
2023-04-04T21:07:58.265Z,5.30
2023-04-04T21:10:51.462Z,5.55
2023-04-04T21:13:38.730Z,5.65
2023-04-04T21:16:14.515Z,5.82
2023-04-04T21:18:41.932Z,5.43
2023-04-04T21:21:21.221Z,2.30
2023-04-04T21:23:49.693Z,1.92
2023-04-04T21:26:43.670Z,2.78
2023-04-04T21:29:21.349Z,2.05
2023-04-04T21:31:50.321Z,2.78
2023-04-04T21:34:25.598Z,2.80
2023-04-04T21:37:00.978Z,2.80
2023-04-04T21:39:32.391Z,1.98
2023-04-04T21:42:06.925Z,2.20
2023-04-04T21:44:35.371Z,1.52
2023-04-04T21:47:01.997Z,2.45
2023-04-04T21:49:28.619Z,2.38
2023-04-04T21:51:55.368Z,2.05
2023-04-04T21:54:23.398Z,2.35
2023-04-04T21:56:50.047Z,3.03
2023-04-04T21:59:16.783Z,5.68
2023-04-04T22:01:43.498Z,5.95
2023-04-04T22:04:10.369Z,5.10
2023-04-04T22:06:37.157Z,3.95
2023-04-04T22:09:05.301Z,4.07
2023-04-04T22:11:35.024Z,2.63
2023-04-04T22:14:04.974Z,3.45
2023-04-04T22:16:37.104Z,5.32
2023-04-04T22:19:04.198Z,3.72
2023-04-04T22:21:36.325Z,3.30
2023-04-04T22:24:03.813Z,5.60
2023-04-04T22:26:33.489Z,2.97
2023-04-04T22:29:02.940Z,3.75
2023-04-04T22:31:30.206Z,3.75
2023-04-04T22:33:56.911Z,3.42
2023-04-04T22:36:26.554Z,3.40
2023-04-04T22:38:59.100Z,4.22
2023-04-04T22:41:28.275Z,4.65
2023-04-04T22:43:56.010Z,5.47
2023-04-04T22:46:23.145Z,5.32
2023-04-04T22:48:50.240Z,5.90
2023-04-04T22:51:16.935Z,5.90
2023-04-04T22:53:44.513Z,7.35
2023-04-04T22:56:11.567Z,5.70
2023-04-04T22:58:38.433Z,5.65
2023-04-04T23:01:05.780Z,6.00
2023-04-04T23:03:32.726Z,7.10
2023-04-04T23:05:59.378Z,4.47
2023-04-04T23:08:26.548Z,2.55
2023-04-04T23:10:53.229Z,3.03
2023-04-04T23:13:20.158Z,2.00
2023-04-04T23:15:46.787Z,2.10
2023-04-04T23:18:13.614Z,1.58
2023-04-04T23:20:41.863Z,1.38
2023-04-04T23:23:08.639Z,1.23
2023-04-04T23:25:35.317Z,2.03
2023-04-04T23:28:02.033Z,2.63
2023-04-04T23:30:29.065Z,2.65
2023-04-04T23:32:55.985Z,3.08
2023-04-04T23:35:22.699Z,3.25
2023-04-04T23:37:49.365Z,3.08
2023-04-04T23:40:16.129Z,3.80
2023-04-04T23:42:42.760Z,3.63
2023-04-04T23:45:10.305Z,3.75
2023-04-04T23:47:37.076Z,4.50
2023-04-04T23:50:04.181Z,5.18
2023-04-04T23:52:30.962Z,3.65
2023-04-04T23:54:57.575Z,2.63
2023-04-04T23:57:24.277Z,1.75
2023-04-04T23:59:50.870Z,1.23
